Time;durP1;ratioP1;P1;durP2;ratioP2;P2;SDS_P1;SDS_P2;PMS_P1;PMS_P2;Temp;Humidity;BMP_temperature;BMP_pressure;BME280_temperature;BME280_humidity;BME280_pressure;Samples;Min_cycle;Max_cycle;Signal;HPM_P1;HPM_P2
2023/06/04 00:00:51;;;;;;;;;5.75;5.75;;;;;18.42;45.03;100804.50;5054634;28;45413;-68
2023/06/04 00:03:17;;;;;;;;;7.75;7.75;;;;;18.37;45.35;100795.97;5053708;28;45451;-68
2023/06/04 00:05:42;;;;;;;;;9.25;9.25;;;;;18.34;45.33;100807.69;5055142;28;45444;-67
2023/06/04 00:08:07;;;;;;;;;11.00;10.00;;;;;18.29;45.34;100793.81;5070412;28;45259;-68
2023/06/04 00:10:33;;;;;;;;;7.50;7.50;;;;;18.29;45.51;100796.50;5055733;28;45339;-73
2023/06/04 00:12:59;;;;;;;;;8.00;8.00;;;;;18.25;45.40;100805.66;5055447;28;45168;-73
2023/06/04 00:15:25;;;;;;;;;9.00;9.00;;;;;18.22;45.56;100797.88;5054554;28;46311;-73
2023/06/04 00:17:50;;;;;;;;;8.25;8.25;;;;;18.12;45.72;100788.81;5070074;27;45254;-66
2023/06/04 00:20:16;;;;;;;;;7.75;7.75;;;;;18.12;45.75;100795.00;5054732;28;45432;-68
2023/06/04 00:22:41;;;;;;;;;9.00;9.00;;;;;18.08;45.74;100788.19;5054558;28;45442;-73
2023/06/04 00:25:09;;;;;;;;;7.25;7.25;;;;;18.03;46.13;100793.81;5054619;28;45483;-74
2023/06/04 00:27:34;;;;;;;;;6.00;6.00;;;;;17.83;46.32;100779.16;5054591;28;45346;-72
2023/06/04 00:30:00;;;;;;;;;8.00;8.00;;;;;17.93;46.27;100798.03;5070111;27;45435;-75
2023/06/04 00:32:25;;;;;;;;;7.25;7.25;;;;;17.84;46.28;100796.00;5054837;28;45503;-72
2023/06/04 00:34:55;;;;;;;;;10.75;10.75;;;;;17.81;46.16;100792.59;5052853;28;48078;-73
2023/06/04 00:37:22;;;;;;;;;8.50;8.50;;;;;17.76;46.18;100792.06;5054539;28;45331;-72
2023/06/04 00:39:48;;;;;;;;;10.00;10.00;;;;;17.75;46.48;100794.81;5054742;28;45338;-73
2023/06/04 00:42:13;;;;;;;;;10.75;10.75;;;;;17.65;46.74;100790.09;5054424;28;45539;-70
2023/06/04 00:44:43;;;;;;;;;12.00;12.00;;;;;17.67;46.56;100803.31;5054238;28;46284;-66
2023/06/04 00:47:12;;;;;;;;;12.25;12.25;;;;;17.62;46.98;100794.78;5054139;28;45354;-69
2023/06/04 00:49:38;;;;;;;;;8.00;8.00;;;;;17.58;46.75;100799.44;5054918;28;45328;-75
2023/06/04 00:52:05;;;;;;;;;8.50;8.50;;;;;17.56;46.98;100804.00;5056308;28;45565;-74
2023/06/04 00:54:32;;;;;;;;;9.50;9.50;;;;;17.48;46.90;100791.22;5056328;28;45469;-73
2023/06/04 00:56:58;;;;;;;;;12.50;12.50;;;;;17.48;47.03;100790.38;5073083;28;45283;-71
2023/06/04 00:59:23;;;;;;;;;6.50;6.50;;;;;17.45;46.94;100793.25;5057878;28;45240;-69
2023/06/04 01:02:03;;;;;;;;;8.00;8.00;;;;;17.39;47.03;100797.13;5057866;28;45308;-67
2023/06/04 01:04:37;;;;;;;;;10.75;10.25;;;;;17.36;47.23;100798.22;5072898;28;47507;-66
2023/06/04 01:07:04;;;;;;;;;7.00;7.00;;;;;17.31;47.20;100799.44;5055865;28;45367;-69
2023/06/04 01:09:30;;;;;;;;;7.75;7.75;;;;;17.28;47.08;100797.00;5057338;28;45291;-65
2023/06/04 01:12:01;;;;;;;;;9.75;9.75;;;;;17.23;47.26;100800.81;5056104;28;45311;-68
2023/06/04 01:14:27;;;;;;;;;11.00;11.00;;;;;17.20;47.11;100794.84;5057454;28;46397;-67
2023/06/04 01:17:02;;;;;;;;;10.75;10.75;;;;;17.15;47.44;100786.31;5057192;28;45406;-70
2023/06/04 01:20:05;;;;;;;;;9.00;9.00;;;;;17.13;47.55;100788.22;5057913;28;45419;-68
2023/06/04 01:22:56;;;;;;;;;9.50;9.50;;;;;17.09;47.72;100792.88;5057702;28;45343;-72
2023/06/04 01:25:28;;;;;;;;;12.25;11.00;;;;;17.06;47.62;100785.09;5057359;28;46689;-67
2023/06/04 01:27:56;;;;;;;;;11.25;11.25;;;;;17.01;47.93;100789.84;5057538;28;45326;-69
2023/06/04 01:30:28;;;;;;;;;11.75;11.75;;;;;16.88;47.87;100773.78;5057325;28;45320;-66
2023/06/04 01:32:56;;;;;;;;;13.00;13.00;;;;;16.93;47.71;100798.28;5073377;27;45550;-66
2023/06/04 01:35:22;;;;;;;;;10.00;10.00;;;;;16.90;48.08;100791.38;5057764;28;45335;-73
2023/06/04 01:37:48;;;;;;;;;10.75;10.25;;;;;16.80;47.87;100782.28;5073178;28;45394;-71
2023/06/04 01:40:14;;;;;;;;;10.50;10.50;;;;;16.75;48.36;100785.19;5057117;28;45267;-71
2023/06/04 01:42:41;;;;;;;;;8.75;8.75;;;;;16.79;48.39;100799.16;5057653;28;45231;-68
2023/06/04 01:45:07;;;;;;;;;7.50;7.50;;;;;16.72;48.49;100781.91;5057039;28;45338;-73
2023/06/04 01:47:33;;;;;;;;;8.50;8.50;;;;;16.64;48.61;100785.03;5056857;28;45850;-71
2023/06/04 01:49:59;;;;;;;;;9.00;9.00;;;;;16.70;48.77;100791.78;5057403;28;45343;-66
2023/06/04 01:52:24;;;;;;;;;8.00;8.00;;;;;16.66;48.45;100801.72;5057235;28;45369;-69
2023/06/04 01:54:52;;;;;;;;;8.00;8.00;;;;;16.62;48.83;100795.75;5072254;27;47256;-74
2023/06/04 01:57:19;;;;;;;;;6.00;6.00;;;;;16.57;48.83;100799.63;5057112;28;45487;-72
2023/06/04 01:59:44;;;;;;;;;6.50;6.50;;;;;16.53;48.99;100798.13;5057515;28;45299;-69
2023/06/04 02:02:10;;;;;;;;;7.00;6.00;;;;;16.49;48.96;100793.00;5056639;28;45170;-71
2023/06/04 02:04:36;;;;;;;;;5.75;5.75;;;;;16.47;49.03;100792.25;5055719;28;45189;-70
2023/06/04 02:07:02;;;;;;;;;6.00;6.00;;;;;16.45;49.02;100799.44;5056248;28;45334;-72
2023/06/04 02:09:27;;;;;;;;;5.00;5.00;;;;;16.43;48.89;100801.34;5055012;28;45374;-73
2023/06/04 02:11:52;;;;;;;;;6.00;6.00;;;;;16.40;49.25;100798.00;5057034;28;45420;-74
2023/06/04 02:14:18;;;;;;;;;5.75;5.75;;;;;16.24;49.42;100783.03;5056284;28;46197;-73
2023/06/04 02:16:43;;;;;;;;;4.75;4.75;;;;;16.30;49.09;100801.22;5056752;28;45322;-68
2023/06/04 02:19:08;;;;;;;;;6.50;6.50;;;;;16.31;49.12;100812.72;5056282;28;47894;-71
2023/06/04 02:21:35;;;;;;;;;7.75;7.75;;;;;16.24;49.52;100800.78;5056411;28;45256;-71
2023/06/04 02:24:00;;;;;;;;;5.75;5.75;;;;;16.24;49.05;100801.59;5056290;28;45548;-73
2023/06/04 02:26:25;;;;;;;;;5.75;5.75;;;;;16.21;49.43;100807.09;5056165;28;45333;-72
2023/06/04 02:28:51;;;;;;;;;6.00;6.00;;;;;16.02;49.44;100778.19;5056376;28;45423;-73
2023/06/04 02:31:17;;;;;;;;;3.75;3.75;;;;;16.17;49.50;100809.09;5072143;28;45598;-72
2023/06/04 02:33:43;;;;;;;;;5.75;5.75;;;;;16.12;49.75;100808.53;5056403;28;45360;-70
2023/06/04 02:36:08;;;;;;;;;5.00;5.00;;;;;16.12;49.90;100811.19;5071530;27;45384;-74
2023/06/04 02:38:34;;;;;;;;;6.50;6.50;;;;;16.10;49.67;100807.75;5055970;28;45426;-71
2023/06/04 02:41:00;;;;;;;;;5.25;5.25;;;;;16.08;49.69;100812.31;5056542;28;45220;-72
2023/06/04 02:43:25;;;;;;;;;6.00;6.00;;;;;16.03;49.95;100809.06;5056124;28;46062;-74
2023/06/04 02:45:51;;;;;;;;;4.00;4.00;;;;;16.05;50.13;100813.34;5056144;28;45296;-72
2023/06/04 02:48:16;;;;;;;;;5.00;5.00;;;;;15.95;49.91;100798.91;5056136;28;45345;-65
2023/06/04 02:50:42;;;;;;;;;5.50;5.50;;;;;15.95;49.93;100803.38;5071386;28;51328;-73
2023/06/04 02:53:08;;;;;;;;;5.25;5.25;;;;;15.95;49.93;100814.00;5056154;28;45568;-68
2023/06/04 02:55:33;;;;;;;;;5.25;5.25;;;;;15.90;50.23;100803.63;5056223;28;45375;-67
2023/06/04 02:58:00;;;;;;;;;5.00;5.00;;;;;15.86;49.89;100807.38;5055892;28;45435;-66
2023/06/04 03:00:26;;;;;;;;;4.00;4.00;;;;;15.80;50.03;100799.78;5055871;28;45272;-70
2023/06/04 03:02:51;;;;;;;;;5.25;5.25;;;;;15.80;50.21;100805.94;5055552;28;45212;-68
2023/06/04 03:05:17;;;;;;;;;5.00;5.00;;;;;15.78;49.96;100805.16;5055982;28;45568;-66
2023/06/04 03:07:45;;;;;;;;;5.00;5.00;;;;;15.73;50.31;100805.44;5056656;28;45353;-69
2023/06/04 03:10:11;;;;;;;;;6.25;6.25;;;;;15.70;50.37;100802.97;5056049;28;45522;-66
2023/06/04 03:12:37;;;;;;;;;4.75;4.75;;;;;15.72;50.50;100806.41;5056107;28;45484;-68
2023/06/04 03:15:03;;;;;;;;;6.00;6.00;;;;;15.67;50.61;100805.81;5055584;28;45429;-71
2023/06/04 03:17:31;;;;;;;;;5.00;5.00;;;;;15.58;50.50;100791.28;5056608;28;45237;-71
2023/06/04 03:19:56;;;;;;;;;5.25;5.25;;;;;15.57;51.11;100794.88;5055864;28;45208;-67
2023/06/04 03:22:21;;;;;;;;;4.75;4.75;;;;;15.58;50.43;100798.38;5054953;28;46681;-74
2023/06/04 03:24:47;;;;;;;;;5.50;5.50;;;;;15.59;50.68;100797.44;5055653;28;45213;-71
2023/06/04 03:27:12;;;;;;;;;6.00;6.00;;;;;15.53;50.52;100801.28;5070957;28;45259;-66
2023/06/04 03:29:38;;;;;;;;;7.50;7.50;;;;;15.56;50.92;100802.94;5055752;28;45573;-66
2023/06/04 03:32:03;;;;;;;;;7.50;7.50;;;;;15.55;50.65;100804.72;5055571;28;46148;-66
2023/06/04 03:34:31;;;;;;;;;5.50;5.50;;;;;15.53;50.65;100800.44;5055349;28;45220;-66
2023/06/04 03:36:57;;;;;;;;;7.00;7.00;;;;;15.51;50.82;100800.53;5054280;28;45377;-66
2023/06/04 03:39:23;;;;;;;;;4.00;4.00;;;;;15.45;51.01;100798.22;5055892;28;45339;-69
2023/06/04 03:41:48;;;;;;;;;5.75;5.75;;;;;15.46;50.87;100806.09;5056040;28;45478;-73
2023/06/04 03:44:17;;;;;;;;;5.00;5.00;;;;;15.41;50.96;100802.88;5055028;28;45397;-76
2023/06/04 03:46:44;;;;;;;;;5.25;5.25;;;;;15.36;51.28;100806.72;5055585;28;45378;-71
2023/06/04 03:49:10;;;;;;;;;7.75;7.75;;;;;15.30;51.14;100800.81;5055293;28;45428;-73
2023/06/04 03:51:36;;;;;;;;;6.00;6.00;;;;;15.29;51.03;100808.84;5053496;28;47310;-74
2023/06/04 03:54:02;;;;;;;;;5.25;5.25;;;;;15.28;51.05;100809.78;5055115;28;45448;-74
2023/06/04 03:56:28;;;;;;;;;4.75;4.75;;;;;15.24;51.37;100811.75;5055193;28;45902;-73
2023/06/04 03:58:53;;;;;;;;;5.00;5.00;;;;;15.19;51.27;100803.22;5055331;28;45470;-74
2023/06/04 04:01:18;;;;;;;;;6.00;6.00;;;;;15.21;51.36;100822.53;5054887;28;45679;-73
2023/06/04 04:03:48;;;;;;;;;6.00;6.00;;;;;15.18;51.36;100822.72;5054988;28;45487;-74
2023/06/04 04:06:13;;;;;;;;;5.50;5.50;;;;;15.15;51.51;100823.72;5055426;28;45296;-69
2023/06/04 04:08:42;;;;;;;;;5.00;5.00;;;;;15.14;51.06;100822.00;5055773;28;45588;-70
2023/06/04 04:11:08;;;;;;;;;5.00;5.00;;;;;15.10;51.38;100820.47;5054921;28;46408;-71
2023/06/04 04:13:33;;;;;;;;;2.00;2.00;;;;;15.02;51.44;100802.38;5054945;28;45434;-72
2023/06/04 04:15:58;;;;;;;;;7.00;7.00;;;;;15.08;51.08;100818.88;5053396;28;45681;-70
2023/06/04 04:18:24;;;;;;;;;5.00;5.00;;;;;15.03;51.36;100813.81;5054862;28;45335;-73
2023/06/04 04:20:50;;;;;;;;;5.50;5.50;;;;;15.03;51.43;100827.91;5054969;28;46607;-74
2023/06/04 04:23:16;;;;;;;;;5.50;5.50;;;;;15.05;51.39;100830.47;5054792;28;45375;-73
2023/06/04 04:25:43;;;;;;;;;5.00;5.00;;;;;15.03;51.37;100816.44;5054896;28;45230;-73
2023/06/04 04:28:09;;;;;;;;;4.50;4.50;;;;;15.04;51.16;100826.09;5058380;28;45429;-73
2023/06/04 04:30:35;;;;;;;;;4.25;4.25;;;;;15.04;51.40;100826.09;5058287;28;46322;-74
2023/06/04 04:33:02;;;;;;;;;4.00;4.00;;;;;15.03;51.28;100827.06;5058715;28;45357;-73
2023/06/04 04:35:28;;;;;;;;;4.75;4.75;;;;;15.01;51.21;100824.50;5058249;28;45391;-74
2023/06/04 04:37:54;;;;;;;;;5.00;5.00;;;;;15.02;51.02;100823.56;5058365;28;45540;-71
2023/06/04 04:40:20;;;;;;;;;4.75;4.75;;;;;14.96;51.27;100813.31;5058113;28;46408;-72
2023/06/04 04:42:45;;;;;;;;;4.25;4.25;;;;;15.00;51.08;100828.09;5056656;28;45363;-73
2023/06/04 04:45:10;;;;;;;;;3.25;3.25;;;;;15.04;50.93;100837.56;5073376;28;45453;-71
2023/06/04 04:47:36;;;;;;;;;7.00;7.00;;;;;15.07;51.19;100838.34;5058002;28;45309;-71
2023/06/04 04:50:02;;;;;;;;;4.25;4.25;;;;;15.06;51.10;100841.94;5056397;28;46151;-70
2023/06/04 04:52:27;;;;;;;;;4.00;4.00;;;;;15.06;50.73;100844.59;5057676;28;45240;-69
2023/06/04 04:54:55;;;;;;;;;4.00;4.00;;;;;15.13;50.87;100846.78;5058446;28;45627;-69
2023/06/04 04:57:24;;;;;;;;;4.25;4.25;;;;;15.20;50.54;100842.03;5058433;28;45393;-66
2023/06/04 04:59:50;;;;;;;;;5.00;5.00;;;;;15.32;50.73;100841.34;5057868;28;46032;-72
2023/06/04 05:02:15;;;;;;;;;5.00;5.00;;;;;15.45;50.09;100843.28;5057541;28;45338;-70
2023/06/04 05:04:41;;;;;;;;;5.00;5.00;;;;;15.60;50.15;100849.53;5039618;28;45338;-72
2023/06/04 05:07:06;;;;;;;;;4.25;4.25;;;;;15.70;49.98;100842.75;5057618;28;45401;-71
2023/06/04 05:09:31;;;;;;;;;5.75;5.75;;;;;15.85;49.31;100848.94;5057403;28;45343;-69
2023/06/04 05:11:57;;;;;;;;;4.75;4.75;;;;;15.94;49.38;100846.78;5057380;28;45377;-67
2023/06/04 05:14:23;;;;;;;;;4.25;4.25;;;;;15.99;49.28;100850.84;5057722;28;45293;-68
2023/06/04 05:16:48;;;;;;;;;5.00;5.00;;;;;16.01;48.77;100845.47;5057331;28;45663;-68
2023/06/04 05:19:15;;;;;;;;;5.00;5.00;;;;;16.11;48.83;100848.41;5055828;28;47426;-66
2023/06/04 05:21:41;;;;;;;;;3.00;3.00;;;;;16.15;48.60;100848.16;5072551;28;45554;-67
2023/06/04 05:24:07;;;;;;;;;4.00;4.00;;;;;16.20;48.31;100842.53;5057163;28;45284;-66
2023/06/04 05:26:33;;;;;;;;;3.75;3.75;;;;;16.19;48.20;100847.03;5057399;28;45279;-68
2023/06/04 05:28:58;;;;;;;;;3.25;3.25;;;;;16.25;48.24;100851.09;5056958;28;46234;-74
2023/06/04 05:31:28;;;;;;;;;5.00;5.00;;;;;16.31;48.20;100850.72;5057177;28;45353;-69
2023/06/04 05:33:53;;;;;;;;;3.00;3.00;;;;;16.33;47.73;100854.13;5057712;28;45247;-71
2023/06/04 05:36:19;;;;;;;;;5.75;5.50;;;;;16.38;47.69;100856.53;5057506;28;45374;-71
2023/06/04 05:38:45;;;;;;;;;2.25;2.25;;;;;16.44;47.58;100858.81;5056693;28;46182;-69
2023/06/04 05:41:11;;;;;;;;;3.00;3.00;;;;;16.49;47.86;100854.06;5072445;28;45406;-69
2023/06/04 05:43:37;;;;;;;;;5.00;5.00;;;;;16.55;47.53;100860.81;5057197;28;45283;-67
2023/06/04 05:46:02;;;;;;;;;4.00;4.00;;;;;16.59;47.34;100856.16;5057178;28;45576;-71
2023/06/04 05:48:28;;;;;;;;;5.25;5.25;;;;;16.61;46.99;100852.47;5056768;28;46100;-72
2023/06/04 05:50:53;;;;;;;;;4.00;4.00;;;;;16.64;47.08;100867.34;5057400;28;45323;-74
2023/06/04 05:53:18;;;;;;;;;1.50;1.50;;;;;16.65;47.15;100874.38;5057221;28;45299;-72
2023/06/04 05:55:44;;;;;;;;;3.00;3.00;;;;;16.63;47.23;100870.97;5057172;28;45285;-69
2023/06/04 05:58:09;;;;;;;;;4.00;4.00;;;;;16.60;46.93;100871.16;5072185;27;48158;-73
2023/06/04 06:00:34;;;;;;;;;5.00;5.00;;;;;16.65;47.20;100879.69;5056605;28;45292;-70
2023/06/04 06:03:01;;;;;;;;;4.00;4.00;;;;;16.64;47.04;100892.13;5072319;28;45398;-70
2023/06/04 06:05:26;;;;;;;;;4.00;4.00;;;;;16.61;47.39;100886.13;5057464;28;45224;-72
2023/06/04 06:07:52;;;;;;;;;3.75;3.75;;;;;16.57;47.22;100888.13;5056570;28;45247;-67
2023/06/04 06:10:17;;;;;;;;;3.00;3.00;;;;;16.60;47.27;100881.78;5056558;28;45428;-68
2023/06/04 06:12:42;;;;;;;;;5.50;5.50;;;;;16.55;47.19;100883.84;5057021;28;45973;-73
2023/06/04 06:15:08;;;;;;;;;4.00;4.00;;;;;16.47;47.38;100884.34;5056900;28;45323;-70
2023/06/04 06:17:33;;;;;;;;;4.25;4.25;;;;;16.43;47.71;100883.66;5056740;28;45608;-70
2023/06/04 06:19:59;;;;;;;;;5.00;5.00;;;;;16.38;47.76;100885.72;5056658;28;45341;-72
2023/06/04 06:22:25;;;;;;;;;5.00;5.00;;;;;16.39;47.69;100894.53;5055714;28;45305;-72
2023/06/04 06:24:50;;;;;;;;;3.00;3.00;;;;;16.38;47.68;100893.69;5056935;28;45225;-70
2023/06/04 06:27:17;;;;;;;;;4.25;4.25;;;;;16.35;47.86;100888.56;5056586;28;45478;-69
2023/06/04 06:29:43;;;;;;;;;4.75;4.75;;;;;16.39;47.93;100894.53;5056206;28;45429;-71
2023/06/04 06:32:09;;;;;;;;;4.00;4.00;;;;;16.33;47.73;100899.25;5072378;27;45380;-72
2023/06/04 06:34:34;;;;;;;;;3.00;3.00;;;;;16.34;47.70;100889.50;5056758;28;45472;-71
2023/06/04 06:37:00;;;;;;;;;4.00;4.00;;;;;16.36;47.78;100891.13;5056680;28;45590;-72
2023/06/04 06:39:25;;;;;;;;;4.00;4.00;;;;;16.40;47.79;100896.25;5050626;28;45460;-71
2023/06/04 06:41:50;;;;;;;;;8.25;8.25;;;;;16.47;47.58;100903.75;5051397;28;45531;-70
2023/06/04 06:44:16;;;;;;;;;6.00;6.00;;;;;16.53;47.89;100907.00;5056971;28;45594;-71
2023/06/04 06:46:41;;;;;;;;;3.00;3.00;;;;;16.61;47.91;100907.38;5057434;28;45230;-71
2023/06/04 06:49:07;;;;;;;;;3.75;3.75;;;;;16.65;47.85;100906.25;5065844;28;45330;-70
2023/06/04 06:51:32;;;;;;;;;4.00;4.00;;;;;16.68;47.62;100902.56;5054840;28;45428;-71
2023/06/04 06:53:57;;;;;;;;;1.75;1.75;;;;;16.72;47.40;100904.91;5041842;28;45390;-71
2023/06/04 06:56:23;;;;;;;;;4.00;4.00;;;;;16.79;47.49;100910.72;5037196;28;55164;-71
2023/06/04 06:58:48;;;;;;;;;2.00;2.00;;;;;16.85;47.60;100917.44;5055059;28;45359;-72
2023/06/04 07:01:13;;;;;;;;;4.00;4.00;;;;;16.90;47.60;100912.72;5055822;28;45292;-70
2023/06/04 07:03:39;;;;;;;;;3.25;3.25;;;;;17.00;47.17;100916.56;5055786;28;45458;-69
2023/06/04 07:06:08;;;;;;;;;3.00;3.00;;;;;17.07;47.20;100911.72;5055250;28;46434;-70
2023/06/04 07:08:33;;;;;;;;;3.00;3.00;;;;;17.13;47.25;100913.16;5052762;28;45470;-74
2023/06/04 07:11:01;;;;;;;;;4.25;4.25;;;;;17.20;46.84;100911.81;5039577;28;46706;-70
2023/06/04 07:13:26;;;;;;;;;4.25;4.25;;;;;17.24;46.72;100913.31;5054912;28;45444;-70
2023/06/04 07:15:52;;;;;;;;;3.00;3.00;;;;;17.30;47.01;100904.94;5055210;28;46192;-70
2023/06/04 07:18:18;;;;;;;;;4.25;4.25;;;;;17.41;46.72;100906.06;5054137;28;45357;-70
2023/06/04 07:20:43;;;;;;;;;4.75;4.75;;;;;17.43;46.84;100910.31;5055760;28;45239;-70
2023/06/04 07:23:09;;;;;;;;;6.75;6.75;;;;;17.52;46.45;100909.75;5055742;28;45647;-68
2023/06/04 07:25:34;;;;;;;;;4.25;4.25;;;;;17.59;46.61;100906.69;5055189;28;45182;-69
2023/06/04 07:28:03;;;;;;;;;6.75;6.75;;;;;17.68;46.48;100914.09;5055518;28;45342;-68
2023/06/04 07:30:30;;;;;;;;;2.00;2.00;;;;;17.79;46.40;100914.22;5055734;28;45303;-68
2023/06/04 07:32:55;;;;;;;;;5.75;5.75;;;;;17.87;46.66;100920.88;5055455;28;45443;-70
2023/06/04 07:35:20;;;;;;;;;3.00;3.00;;;;;17.96;46.32;100914.94;5054161;28;65543;-69
2023/06/04 07:37:47;;;;;;;;;3.00;3.00;;;;;18.02;45.93;100908.38;5055290;28;45331;-69
2023/06/04 07:40:13;;;;;;;;;4.00;4.00;;;;;18.13;45.30;100913.84;5055388;28;45238;-69
2023/06/04 07:42:39;;;;;;;;;3.50;3.50;;;;;18.17;45.02;100914.47;5055211;28;45231;-70
2023/06/04 07:45:05;;;;;;;;;3.00;3.00;;;;;18.20;45.30;100912.47;5053506;28;47472;-71
2023/06/04 07:47:31;;;;;;;;;3.75;3.75;;;;;18.28;44.84;100908.44;5055112;28;45860;-69
2023/06/04 07:49:56;;;;;;;;;3.50;3.50;;;;;18.35;44.80;100920.38;5054808;28;46126;-70
2023/06/04 07:52:21;;;;;;;;;4.75;4.75;;;;;18.42;44.81;100919.00;5054563;28;50398;-69
2023/06/04 07:54:47;;;;;;;;;4.50;4.50;;;;;18.51;44.28;100913.06;5054767;28;46289;-69
2023/06/04 07:57:12;;;;;;;;;3.00;3.00;;;;;18.59;44.40;100906.34;5054726;28;45339;-70
2023/06/04 07:59:37;;;;;;;;;2.50;2.50;;;;;18.75;43.98;100911.47;5054518;28;45319;-71
2023/06/04 08:02:03;;;;;;;;;4.75;4.75;;;;;18.81;44.18;100911.88;5055061;28;45617;-71
2023/06/04 08:04:29;;;;;;;;;5.75;5.75;;;;;18.90;43.84;100905.06;5054847;28;47618;-71
2023/06/04 08:06:55;;;;;;;;;5.75;5.75;;;;;19.02;43.69;100911.34;5054579;28;45291;-70
2023/06/04 08:09:20;;;;;;;;;3.00;3.00;;;;;19.09;43.38;100914.47;5052830;28;45420;-69
2023/06/04 08:11:45;;;;;;;;;3.00;3.00;;;;;19.14;42.97;100911.47;5047873;28;45537;-73
2023/06/04 08:14:12;;;;;;;;;3.25;3.25;;;;;19.16;43.20;100905.06;5051910;28;45398;-77
2023/06/04 08:16:38;;;;;;;;;4.00;4.00;;;;;19.23;43.42;100898.31;5053837;28;45349;-78
2023/06/04 08:19:04;;;;;;;;;2.50;2.50;;;;;19.31;43.22;100896.91;5034832;28;45254;-79
2023/06/04 08:21:29;;;;;;;;;4.00;4.00;;;;;19.36;43.03;100884.97;5041253;28;45259;-80
2023/06/04 08:23:55;;;;;;;;;3.75;3.75;;;;;19.56;42.91;100907.50;5054668;28;45780;-76
2023/06/04 08:26:21;;;;;;;;;4.00;4.00;;;;;19.63;42.82;100902.59;5053075;28;45292;-74
2023/06/04 08:28:50;;;;;;;;;4.00;4.00;;;;;19.71;42.61;100897.53;5054265;28;45318;-74
2023/06/04 08:31:16;;;;;;;;;4.00;4.00;;;;;19.81;42.57;100904.84;5041662;28;45562;-76
2023/06/04 08:33:42;;;;;;;;;3.25;3.25;;;;;19.87;43.04;100904.38;5046513;28;45480;-79
2023/06/04 08:36:08;;;;;;;;;0.00;0.00;;;;;19.91;42.59;100894.38;5036388;28;45314;-73
2023/06/04 08:38:33;;;;;;;;;4.00;4.00;;;;;20.00;42.34;100893.69;5045907;28;45450;-71
2023/06/04 08:41:16;;;;;;;;;4.50;4.50;;;;;20.14;42.04;100903.31;5039110;28;45389;-74
2023/06/04 08:43:45;;;;;;;;;4.00;4.00;;;;;20.19;41.81;100895.84;5032880;28;45581;-75
2023/06/04 08:46:12;;;;;;;;;4.00;4.00;;;;;20.25;41.68;100902.50;5035066;28;45418;-72
2023/06/04 08:48:38;;;;;;;;;4.75;4.75;;;;;20.34;41.71;100893.78;5039981;28;45719;-74
2023/06/04 08:51:08;;;;;;;;;5.00;5.00;;;;;20.45;41.71;100895.66;5050594;28;45691;-73
2023/06/04 08:53:34;;;;;;;;;3.75;3.75;;;;;20.50;41.89;100901.47;5052903;28;46135;-77
2023/06/04 08:56:00;;;;;;;;;6.00;6.00;;;;;20.63;41.45;100906.72;5052442;28;45366;-72
2023/06/04 08:58:27;;;;;;;;;3.75;3.75;;;;;20.70;41.27;100902.63;5051155;28;45334;-74
2023/06/04 09:00:53;;;;;;;;;4.75;4.75;;;;;20.76;41.26;100898.59;5052843;28;45528;-79
2023/06/04 09:03:20;;;;;;;;;5.00;5.00;;;;;20.89;39.36;100903.88;5055644;28;46386;-74
2023/06/04 09:05:49;;;;;;;;;3.50;3.50;;;;;20.94;40.05;100906.16;5048420;28;45508;-78
2023/06/04 09:08:18;;;;;;;;;3.50;3.50;;;;;20.95;39.25;100883.81;5054370;28;45419;-77
2023/06/04 09:10:46;;;;;;;;;5.00;5.00;;;;;21.10;40.12;100892.44;5059096;28;45151;-74
2023/06/04 09:13:13;;;;;;;;;5.25;5.25;;;;;21.22;39.88;100906.66;5040014;28;48193;-78
2023/06/04 09:15:38;;;;;;;;;5.25;5.25;;;;;21.30;37.64;100898.88;5050047;28;45639;-76
2023/06/04 09:18:04;;;;;;;;;2.75;2.75;;;;;21.30;37.43;100894.34;5054332;28;45385;-75
2023/06/04 09:20:29;;;;;;;;;4.00;4.00;;;;;21.40;36.95;100898.94;5056478;28;45629;-74
2023/06/04 09:22:55;;;;;;;;;2.00;2.00;;;;;21.49;35.89;100889.34;5049413;28;45353;-75
2023/06/04 09:25:25;;;;;;;;;4.25;4.25;;;;;21.52;36.22;100889.09;5047853;28;45341;-74
2023/06/04 09:27:52;;;;;;;;;3.00;3.00;;;;;21.59;35.39;100892.97;5053554;28;45636;-75
2023/06/04 09:30:17;;;;;;;;;3.75;3.75;;;;;21.61;36.35;100882.97;5045087;28;45457;-73
2023/06/04 09:32:43;;;;;;;;;3.75;3.75;;;;;21.73;35.63;100884.66;5050051;27;45817;-78
2023/06/04 09:35:12;;;;;;;;;5.00;5.00;;;;;21.85;35.34;100903.38;5040610;28;45466;-76
2023/06/04 09:37:38;;;;;;;;;3.00;3.00;;;;;21.81;34.47;100881.38;5054656;28;46147;-77
2023/06/04 09:40:06;;;;;;;;;3.00;3.00;;;;;21.94;33.51;100891.06;5050200;28;45473;-76
2023/06/04 09:42:44;;;;;;;;;2.50;2.50;;;;;21.97;33.43;100896.16;5049989;28;46321;-78
2023/06/04 09:45:10;;;;;;;;;3.75;3.75;;;;;21.98;34.61;100890.66;5040167;28;46253;-77
2023/06/04 09:47:42;;;;;;;;;4.25;4.25;;;;;22.07;34.96;100905.09;5058532;28;45613;-75
2023/06/04 09:50:09;;;;;;;;;4.50;4.50;;;;;22.13;34.09;100901.03;5055733;28;45447;-75
2023/06/04 09:52:35;;;;;;;;;3.00;3.00;;;;;22.17;33.34;100908.72;5051624;27;45657;-76
2023/06/04 09:55:04;;;;;;;;;2.25;2.25;;;;;22.18;33.45;100904.19;5048750;28;45370;-82
2023/06/04 09:57:31;;;;;;;;;3.00;3.00;;;;;22.18;33.33;100913.09;5058869;28;45553;-79
2023/06/04 09:59:58;;;;;;;;;6.50;5.00;;;;;22.27;34.26;100911.47;5062250;27;45591;-77
2023/06/04 10:02:29;;;;;;;;;5.00;5.00;;;;;22.35;34.41;100913.47;5053005;28;45416;-81
2023/06/04 10:04:59;;;;;;;;;3.75;3.75;;;;;22.44;33.83;100909.19;5048292;28;45512;-80
2023/06/04 10:07:26;;;;;;;;;4.00;4.00;;;;;22.49;33.75;100909.66;5067516;27;45907;-81
2023/06/04 10:09:55;;;;;;;;;4.50;4.50;;;;;22.54;33.31;100918.16;5041979;28;45685;-80
2023/06/04 10:12:28;;;;;;;;;2.50;2.50;;;;;22.55;32.55;100908.28;5046855;28;46209;-73
2023/06/04 10:15:07;;;;;;;;;6.00;6.00;;;;;22.61;32.56;100908.59;5053930;28;45658;-72
2023/06/04 10:17:34;;;;;;;;;7.75;7.75;;;;;22.67;32.30;100917.09;5044822;28;45476;-77
2023/06/04 10:20:03;;;;;;;;;12.25;12.25;;;;;22.69;32.63;100913.28;5038470;28;45430;-74
2023/06/04 10:22:30;;;;;;;;;6.00;6.00;;;;;22.80;32.70;100919.56;5044033;28;45484;-74
2023/06/04 10:24:55;;;;;;;;;3.50;3.50;;;;;22.86;32.16;100911.84;5036230;28;45477;-81
2023/06/04 10:27:22;;;;;;;;;5.00;5.00;;;;;22.96;32.66;100913.72;5041904;28;45464;-69
2023/06/04 10:29:49;;;;;;;;;4.00;4.00;;;;;23.03;31.97;100917.53;5049565;28;45394;-70
2023/06/04 10:32:15;;;;;;;;;3.25;3.25;;;;;23.07;31.32;100915.47;5055237;28;45455;-72
2023/06/04 10:34:40;;;;;;;;;3.25;3.25;;;;;23.13;31.42;100923.78;5054625;28;46251;-66
2023/06/04 10:37:06;;;;;;;;;4.00;4.00;;;;;23.19;31.70;100909.84;5054323;28;45448;-66
2023/06/04 10:39:32;;;;;;;;;2.75;2.75;;;;;23.26;30.95;100910.19;5054060;28;45625;-68
2023/06/04 10:42:02;;;;;;;;;3.50;3.50;;;;;23.31;30.28;100907.06;5053981;28;46899;-68
2023/06/04 10:44:29;;;;;;;;;3.00;3.00;;;;;23.33;30.02;100918.56;5054114;28;45486;-70
2023/06/04 10:46:54;;;;;;;;;2.00;2.00;;;;;23.32;29.29;100915.00;5054243;28;45481;-67
2023/06/04 10:49:28;;;;;;;;;3.00;3.00;;;;;23.32;29.69;100903.41;5052462;28;45704;-69
2023/06/04 10:51:56;;;;;;;;;3.00;3.00;;;;;23.33;30.18;100905.97;5053803;28;46163;-68
2023/06/04 10:54:25;;;;;;;;;5.00;5.00;;;;;23.38;29.51;100905.56;5053384;28;45380;-66
2023/06/04 10:56:52;;;;;;;;;3.00;3.00;;;;;23.31;28.89;100897.19;5054048;28;45438;-69
2023/06/04 10:59:18;;;;;;;;;7.00;7.00;;;;;23.41;29.46;100901.75;5053929;28;45554;-69
2023/06/04 11:01:44;;;;;;;;;15.00;15.00;;;;;23.40;29.79;100902.72;5052942;28;45540;-67
2023/06/04 11:04:24;;;;;;;;;16.00;16.00;;;;;23.45;30.71;100904.03;5053800;28;45584;-66
2023/06/04 11:07:10;;;;;;;;;3.25;3.25;;;;;23.51;30.25;100901.78;5054163;28;45477;-65
2023/06/04 11:09:37;;;;;;;;;4.50;4.50;;;;;23.59;30.65;100912.66;5053457;28;45605;-66
2023/06/04 11:12:05;;;;;;;;;4.00;4.00;;;;;23.61;29.71;100908.84;5053920;28;46191;-69
2023/06/04 11:14:30;;;;;;;;;3.75;3.75;;;;;23.60;30.29;100906.31;5054229;28;45319;-69
2023/06/04 11:16:56;;;;;;;;;3.00;3.00;;;;;23.60;30.25;100909.81;5053612;28;45386;-69
2023/06/04 11:19:22;;;;;;;;;4.00;4.00;;;;;23.66;30.04;100912.94;5054303;28;45607;-68
2023/06/04 11:21:48;;;;;;;;;3.25;3.25;;;;;23.68;30.71;100909.16;5052283;28;47501;-67